Highland Mills, New York
Current Conditions -  °F | °C
As of 9:45 PM on Friday 21 Nov 2014 (Local Time) from KSWF Reporting Station
Clear Clear  
Wind Chill: 17°   Ceiling: Unl
Heat Index: 23°   Visibility: 10mi
Dew Point: 12°   Wind: 5mph
Humidity: 63%   Direction: NA
Pressure: 30.46"   Gusts: NA
Location:  41.35°N, 74.13°W
Report Text: KSWF 220245Z VRB04KT 10SM SKC M05/M11 A3046
Loading
Personal Weather Stations






























Interactive Weather Map New forecast layout! Learn more

10-Day Weather Forecast

Advertisements
Track Severe Weather on mobile